CheckWX is a tool to help pilots better visualize weather data.  It is not intended as a substitute for an official pre-flight weather briefing.

02:09:35 UTC

EDQM TAF
Hof-Plauen Airport
Hof, Germany
TAF EDQM 181700Z 1818/1903 26006KT 9999 SCT020

Mar-18@
18:00 UTC

Mar-18 @ 18:00 UTC

Mar-19@
03:00 UTC

Mar-19 @ 03:00 UTC

TAF EDQM 181700Z 1818/1903 26006KT 9999 SCT020
Wind
  • 260° at 6 KTS
Cloud Levels
  • Scattered at 2,000' AGL